sensor_id;sensor_type;location;lat;lon;timestamp;P1;durP1;ratioP1;P2;durP2;ratioP2
35634;SDS011;21757;43.610;1.440;2023-01-13T00:00:30;38.38;;;18.63;;
35634;SDS011;21757;43.610;1.440;2023-01-13T00:02:55;36.03;;;17.08;;
35634;SDS011;21757;43.610;1.440;2023-01-13T00:05:21;41.53;;;19.52;;
35634;SDS011;21757;43.610;1.440;2023-01-13T00:07:47;48.17;;;20.98;;
35634;SDS011;21757;43.610;1.440;2023-01-13T00:10:13;44.97;;;19.92;;
35634;SDS011;21757;43.610;1.440;2023-01-13T00:12:40;35.92;;;20.13;;
35634;SDS011;21757;43.610;1.440;2023-01-13T00:15:06;40.55;;;19.95;;
35634;SDS011;21757;43.610;1.440;2023-01-13T00:17:32;40.53;;;19.08;;
35634;SDS011;21757;43.610;1.440;2023-01-13T00:19:58;33.38;;;18.48;;
35634;SDS011;21757;43.610;1.440;2023-01-13T00:22:24;36.40;;;18.23;;
35634;SDS011;21757;43.610;1.440;2023-01-13T00:24:49;31.95;;;17.63;;
35634;SDS011;21757;43.610;1.440;2023-01-13T00:27:15;37.83;;;18.67;;
35634;SDS011;21757;43.610;1.440;2023-01-13T00:29:41;31.33;;;16.95;;
35634;SDS011;21757;43.610;1.440;2023-01-13T00:32:06;38.92;;;17.73;;
35634;SDS011;21757;43.610;1.440;2023-01-13T00:34:32;32.58;;;17.25;;
35634;SDS011;21757;43.610;1.440;2023-01-13T00:36:58;33.08;;;17.42;;
35634;SDS011;21757;43.610;1.440;2023-01-13T00:39:24;41.42;;;18.08;;
35634;SDS011;21757;43.610;1.440;2023-01-13T00:41:49;38.55;;;17.90;;
35634;SDS011;21757;43.610;1.440;2023-01-13T00:44:33;37.22;;;17.05;;
35634;SDS011;21757;43.610;1.440;2023-01-13T00:46:59;34.72;;;16.52;;
35634;SDS011;21757;43.610;1.440;2023-01-13T00:49:25;36.67;;;18.05;;
35634;SDS011;21757;43.610;1.440;2023-01-13T00:51:50;36.35;;;16.67;;
35634;SDS011;21757;43.610;1.440;2023-01-13T00:54:16;32.72;;;16.63;;
35634;SDS011;21757;43.610;1.440;2023-01-13T00:56:42;34.72;;;16.45;;
35634;SDS011;21757;43.610;1.440;2023-01-13T00:59:11;40.00;;;15.52;;
35634;SDS011;21757;43.610;1.440;2023-01-13T01:01:38;31.25;;;15.68;;
35634;SDS011;21757;43.610;1.440;2023-01-13T01:04:04;33.35;;;15.40;;
35634;SDS011;21757;43.610;1.440;2023-01-13T01:06:30;30.88;;;15.45;;
35634;SDS011;21757;43.610;1.440;2023-01-13T01:08:56;31.52;;;14.43;;
35634;SDS011;21757;43.610;1.440;2023-01-13T01:11:23;25.85;;;12.48;;
35634;SDS011;21757;43.610;1.440;2023-01-13T01:13:52;24.67;;;12.15;;
35634;SDS011;21757;43.610;1.440;2023-01-13T01:16:21;27.08;;;12.02;;
35634;SDS011;21757;43.610;1.440;2023-01-13T01:18:48;26.15;;;11.27;;
35634;SDS011;21757;43.610;1.440;2023-01-13T01:21:15;29.13;;;10.90;;
35634;SDS011;21757;43.610;1.440;2023-01-13T01:23:41;27.52;;;11.60;;
35634;SDS011;21757;43.610;1.440;2023-01-13T01:26:09;18.58;;;11.02;;
35634;SDS011;21757;43.610;1.440;2023-01-13T01:28:38;23.10;;;10.38;;
35634;SDS011;21757;43.610;1.440;2023-01-13T01:31:04;21.52;;;10.55;;
35634;SDS011;21757;43.610;1.440;2023-01-13T01:33:35;21.08;;;9.57;;
35634;SDS011;21757;43.610;1.440;2023-01-13T01:36:01;24.30;;;9.55;;
35634;SDS011;21757;43.610;1.440;2023-01-13T01:38:28;20.10;;;9.27;;
35634;SDS011;21757;43.610;1.440;2023-01-13T01:40:54;23.08;;;9.25;;
35634;SDS011;21757;43.610;1.440;2023-01-13T01:43:20;22.65;;;9.10;;
35634;SDS011;21757;43.610;1.440;2023-01-13T01:46:05;21.13;;;9.00;;
35634;SDS011;21757;43.610;1.440;2023-01-13T01:48:32;18.05;;;8.50;;
35634;SDS011;21757;43.610;1.440;2023-01-13T01:51:03;17.88;;;8.65;;
35634;SDS011;21757;43.610;1.440;2023-01-13T01:53:33;18.47;;;8.97;;
35634;SDS011;21757;43.610;1.440;2023-01-13T01:55:59;27.63;;;9.15;;
35634;SDS011;21757;43.610;1.440;2023-01-13T01:58:27;20.10;;;8.20;;
35634;SDS011;21757;43.610;1.440;2023-01-13T02:01:10;22.33;;;8.00;;
35634;SDS011;21757;43.610;1.440;2023-01-13T02:03:36;21.25;;;8.20;;
35634;SDS011;21757;43.610;1.440;2023-01-13T02:06:05;20.90;;;8.50;;
35634;SDS011;21757;43.610;1.440;2023-01-13T02:08:32;15.40;;;7.97;;
35634;SDS011;21757;43.610;1.440;2023-01-13T02:10:58;21.65;;;8.20;;
35634;SDS011;21757;43.610;1.440;2023-01-13T02:13:24;16.23;;;8.27;;
35634;SDS011;21757;43.610;1.440;2023-01-13T02:35:32;20.90;;;7.90;;
35634;SDS011;21757;43.610;1.440;2023-01-13T02:38:19;16.77;;;8.25;;
35634;SDS011;21757;43.610;1.440;2023-01-13T02:43:22;19.55;;;7.32;;
35634;SDS011;21757;43.610;1.440;2023-01-13T02:46:27;19.58;;;7.05;;
35634;SDS011;21757;43.610;1.440;2023-01-13T02:48:58;20.67;;;7.85;;
35634;SDS011;21757;43.610;1.440;2023-01-13T02:51:31;18.83;;;8.27;;
35634;SDS011;21757;43.610;1.440;2023-01-13T02:54:02;19.23;;;7.38;;
35634;SDS011;21757;43.610;1.440;2023-01-13T02:56:39;19.27;;;7.75;;
35634;SDS011;21757;43.610;1.440;2023-01-13T02:59:07;21.92;;;7.68;;
35634;SDS011;21757;43.610;1.440;2023-01-13T03:01:33;15.88;;;8.02;;
35634;SDS011;21757;43.610;1.440;2023-01-13T03:04:09;16.63;;;7.63;;
35634;SDS011;21757;43.610;1.440;2023-01-13T03:06:46;16.30;;;7.47;;
35634;SDS011;21757;43.610;1.440;2023-01-13T03:09:28;20.88;;;7.95;;
35634;SDS011;21757;43.610;1.440;2023-01-13T03:12:11;16.05;;;7.72;;
35634;SDS011;21757;43.610;1.440;2023-01-13T03:14:46;16.98;;;7.28;;
35634;SDS011;21757;43.610;1.440;2023-01-13T03:22:41;23.73;;;7.93;;
35634;SDS011;21757;43.610;1.440;2023-01-13T03:25:19;17.23;;;7.80;;
35634;SDS011;21757;43.610;1.440;2023-01-13T03:27:54;18.52;;;7.10;;
35634;SDS011;21757;43.610;1.440;2023-01-13T03:33:01;20.00;;;7.10;;
35634;SDS011;21757;43.610;1.440;2023-01-13T03:35:37;22.63;;;6.97;;
35634;SDS011;21757;43.610;1.440;2023-01-13T03:38:49;17.05;;;7.53;;
35634;SDS011;21757;43.610;1.440;2023-01-13T03:40:57;13.02;;;6.25;;
35634;SDS011;21757;43.610;1.440;2023-01-13T03:43:37;14.63;;;6.43;;
35634;SDS011;21757;43.610;1.440;2023-01-13T03:46:32;17.23;;;6.35;;
35634;SDS011;21757;43.610;1.440;2023-01-13T03:49:12;14.63;;;6.90;;
35634;SDS011;21757;43.610;1.440;2023-01-13T03:51:42;12.80;;;6.35;;
35634;SDS011;21757;43.610;1.440;2023-01-13T03:54:12;17.05;;;6.32;;
35634;SDS011;21757;43.610;1.440;2023-01-13T03:56:41;14.48;;;5.72;;
35634;SDS011;21757;43.610;1.440;2023-01-13T03:59:15;18.90;;;6.40;;
35634;SDS011;21757;43.610;1.440;2023-01-13T04:01:49;20.35;;;6.60;;
35634;SDS011;21757;43.610;1.440;2023-01-13T04:04:30;16.75;;;6.57;;
35634;SDS011;21757;43.610;1.440;2023-01-13T04:07:32;18.58;;;6.60;;
35634;SDS011;21757;43.610;1.440;2023-01-13T04:10:26;17.13;;;6.88;;
35634;SDS011;21757;43.610;1.440;2023-01-13T04:13:05;16.27;;;7.10;;
35634;SDS011;21757;43.610;1.440;2023-01-13T04:15:37;15.10;;;6.40;;
35634;SDS011;21757;43.610;1.440;2023-01-13T04:18:12;17.80;;;7.30;;
35634;SDS011;21757;43.610;1.440;2023-01-13T04:20:40;17.73;;;7.17;;
35634;SDS011;21757;43.610;1.440;2023-01-13T04:23:07;21.35;;;6.45;;
35634;SDS011;21757;43.610;1.440;2023-01-13T04:25:34;16.30;;;6.53;;
35634;SDS011;21757;43.610;1.440;2023-01-13T04:28:00;13.27;;;5.32;;
35634;SDS011;21757;43.610;1.440;2023-01-13T04:30:26;14.43;;;6.82;;
35634;SDS011;21757;43.610;1.440;2023-01-13T04:32:51;20.35;;;8.50;;
35634;SDS011;21757;43.610;1.440;2023-01-13T04:35:17;13.20;;;6.10;;
35634;SDS011;21757;43.610;1.440;2023-01-13T04:37:43;18.10;;;8.15;;
35634;SDS011;21757;43.610;1.440;2023-01-13T04:40:08;16.75;;;6.00;;
35634;SDS011;21757;43.610;1.440;2023-01-13T04:42:34;21.23;;;8.98;;
35634;SDS011;21757;43.610;1.440;2023-01-13T04:45:00;13.90;;;7.75;;
35634;SDS011;21757;43.610;1.440;2023-01-13T04:47:26;14.27;;;7.25;;
35634;SDS011;21757;43.610;1.440;2023-01-13T04:49:51;14.55;;;6.05;;
35634;SDS011;21757;43.610;1.440;2023-01-13T04:52:17;16.65;;;6.32;;
35634;SDS011;21757;43.610;1.440;2023-01-13T04:54:43;12.65;;;5.40;;
35634;SDS011;21757;43.610;1.440;2023-01-13T04:57:08;19.55;;;6.35;;
35634;SDS011;21757;43.610;1.440;2023-01-13T04:59:34;14.02;;;5.63;;
35634;SDS011;21757;43.610;1.440;2023-01-13T05:02:00;15.10;;;6.05;;
35634;SDS011;21757;43.610;1.440;2023-01-13T05:04:25;16.05;;;5.45;;
35634;SDS011;21757;43.610;1.440;2023-01-13T05:06:51;12.40;;;5.53;;
35634;SDS011;21757;43.610;1.440;2023-01-13T05:09:17;10.65;;;5.75;;
35634;SDS011;21757;43.610;1.440;2023-01-13T05:11:42;13.40;;;5.45;;
35634;SDS011;21757;43.610;1.440;2023-01-13T05:14:27;11.57;;;5.35;;
35634;SDS011;21757;43.610;1.440;2023-01-13T05:17:12;12.48;;;4.90;;
35634;SDS011;21757;43.610;1.440;2023-01-13T05:19:45;12.43;;;5.55;;
35634;SDS011;21757;43.610;1.440;2023-01-13T05:22:11;10.80;;;5.15;;
35634;SDS011;21757;43.610;1.440;2023-01-13T05:24:55;13.27;;;5.80;;
35634;SDS011;21757;43.610;1.440;2023-01-13T05:27:39;18.40;;;5.93;;
35634;SDS011;21757;43.610;1.440;2023-01-13T05:30:05;15.70;;;5.60;;
35634;SDS011;21757;43.610;1.440;2023-01-13T05:32:31;14.50;;;5.60;;
35634;SDS011;21757;43.610;1.440;2023-01-13T05:34:57;14.98;;;5.78;;
35634;SDS011;21757;43.610;1.440;2023-01-13T05:37:23;13.77;;;5.63;;
35634;SDS011;21757;43.610;1.440;2023-01-13T05:39:49;10.73;;;5.57;;
35634;SDS011;21757;43.610;1.440;2023-01-13T05:42:34;12.52;;;5.13;;
35634;SDS011;21757;43.610;1.440;2023-01-13T05:45:18;14.30;;;5.75;;
35634;SDS011;21757;43.610;1.440;2023-01-13T05:47:43;12.77;;;5.57;;
35634;SDS011;21757;43.610;1.440;2023-01-13T05:50:09;12.60;;;6.00;;
35634;SDS011;21757;43.610;1.440;2023-01-13T05:52:35;15.52;;;6.38;;
35634;SDS011;21757;43.610;1.440;2023-01-13T05:55:01;15.27;;;5.90;;
35634;SDS011;21757;43.610;1.440;2023-01-13T05:57:26;13.13;;;5.93;;
35634;SDS011;21757;43.610;1.440;2023-01-13T05:59:52;12.80;;;5.65;;
35634;SDS011;21757;43.610;1.440;2023-01-13T06:02:18;14.70;;;6.30;;
35634;SDS011;21757;43.610;1.440;2023-01-13T06:04:44;14.70;;;6.03;;
35634;SDS011;21757;43.610;1.440;2023-01-13T06:07:09;16.05;;;5.93;;
35634;SDS011;21757;43.610;1.440;2023-01-13T06:09:35;14.90;;;5.60;;
35634;SDS011;21757;43.610;1.440;2023-01-13T06:12:02;12.82;;;5.72;;
35634;SDS011;21757;43.610;1.440;2023-01-13T06:14:28;15.45;;;5.75;;
35634;SDS011;21757;43.610;1.440;2023-01-13T06:17:08;15.80;;;5.40;;
35634;SDS011;21757;43.610;1.440;2023-01-13T06:19:34;16.40;;;6.10;;
35634;SDS011;21757;43.610;1.440;2023-01-13T06:22:09;17.75;;;6.15;;
35634;SDS011;21757;43.610;1.440;2023-01-13T06:24:42;13.52;;;5.50;;
35634;SDS011;21757;43.610;1.440;2023-01-13T06:27:12;13.73;;;5.80;;
35634;SDS011;21757;43.610;1.440;2023-01-13T06:29:39;15.45;;;6.22;;
35634;SDS011;21757;43.610;1.440;2023-01-13T06:32:06;18.25;;;5.47;;
35634;SDS011;21757;43.610;1.440;2023-01-13T06:37:04;15.25;;;6.68;;
35634;SDS011;21757;43.610;1.440;2023-01-13T06:39:30;12.75;;;6.32;;
35634;SDS011;21757;43.610;1.440;2023-01-13T06:41:57;17.63;;;6.00;;
35634;SDS011;21757;43.610;1.440;2023-01-13T06:44:48;18.63;;;6.30;;
35634;SDS011;21757;43.610;1.440;2023-01-13T06:47:14;12.23;;;5.60;;
35634;SDS011;21757;43.610;1.440;2023-01-13T06:49:40;12.60;;;6.07;;
35634;SDS011;21757;43.610;1.440;2023-01-13T06:52:06;17.17;;;6.97;;
35634;SDS011;21757;43.610;1.440;2023-01-13T06:54:31;13.82;;;6.20;;
35634;SDS011;21757;43.610;1.440;2023-01-13T06:56:58;12.18;;;5.38;;
35634;SDS011;21757;43.610;1.440;2023-01-13T06:59:25;16.00;;;5.60;;
35634;SDS011;21757;43.610;1.440;2023-01-13T07:01:50;17.58;;;6.05;;
35634;SDS011;21757;43.610;1.440;2023-01-13T07:04:16;11.93;;;5.15;;
35634;SDS011;21757;43.610;1.440;2023-01-13T07:06:42;12.93;;;5.93;;
35634;SDS011;21757;43.610;1.440;2023-01-13T07:09:08;14.55;;;5.07;;
35634;SDS011;21757;43.610;1.440;2023-01-13T07:11:34;11.73;;;4.10;;
35634;SDS011;21757;43.610;1.440;2023-01-13T07:14:00;15.25;;;4.53;;
35634;SDS011;21757;43.610;1.440;2023-01-13T07:16:44;12.60;;;4.43;;
35634;SDS011;21757;43.610;1.440;2023-01-13T07:19:10;13.50;;;4.88;;
35634;SDS011;21757;43.610;1.440;2023-01-13T07:21:36;11.55;;;4.10;;
35634;SDS011;21757;43.610;1.440;2023-01-13T07:24:01;11.25;;;4.30;;
35634;SDS011;21757;43.610;1.440;2023-01-13T07:26:27;11.60;;;5.18;;
35634;SDS011;21757;43.610;1.440;2023-01-13T07:28:53;14.82;;;3.75;;
35634;SDS011;21757;43.610;1.440;2023-01-13T07:31:19;13.73;;;3.85;;
35634;SDS011;21757;43.610;1.440;2023-01-13T07:33:45;12.27;;;3.95;;
35634;SDS011;21757;43.610;1.440;2023-01-13T07:36:12;9.50;;;3.03;;
35634;SDS011;21757;43.610;1.440;2023-01-13T07:38:38;11.43;;;3.75;;
35634;SDS011;21757;43.610;1.440;2023-01-13T07:41:04;6.13;;;2.63;;
35634;SDS011;21757;43.610;1.440;2023-01-13T07:43:49;11.82;;;3.10;;
35634;SDS011;21757;43.610;1.440;2023-01-13T07:46:16;13.10;;;3.22;;
35634;SDS011;21757;43.610;1.440;2023-01-13T07:48:42;10.35;;;3.40;;
35634;SDS011;21757;43.610;1.440;2023-01-13T07:51:09;8.52;;;2.58;;
35634;SDS011;21757;43.610;1.440;2023-01-13T07:53:36;9.82;;;2.92;;
35634;SDS011;21757;43.610;1.440;2023-01-13T07:56:03;8.25;;;2.70;;
35634;SDS011;21757;43.610;1.440;2023-01-13T07:58:31;8.93;;;2.90;;
35634;SDS011;21757;43.610;1.440;2023-01-13T08:00:58;8.48;;;2.95;;
35634;SDS011;21757;43.610;1.440;2023-01-13T08:03:23;11.07;;;2.40;;
35634;SDS011;21757;43.610;1.440;2023-01-13T08:05:50;10.93;;;2.88;;
35634;SDS011;21757;43.610;1.440;2023-01-13T08:08:16;9.15;;;2.50;;
35634;SDS011;21757;43.610;1.440;2023-01-13T08:10:42;11.10;;;2.30;;
35634;SDS011;21757;43.610;1.440;2023-01-13T08:13:13;10.43;;;2.63;;
35634;SDS011;21757;43.610;1.440;2023-01-13T08:15:50;7.78;;;2.97;;
35634;SDS011;21757;43.610;1.440;2023-01-13T08:18:19;10.32;;;2.60;;
35634;SDS011;21757;43.610;1.440;2023-01-13T08:20:49;10.30;;;2.58;;
35634;SDS011;21757;43.610;1.440;2023-01-13T08:23:21;7.18;;;2.13;;
35634;SDS011;21757;43.610;1.440;2023-01-13T08:25:47;7.15;;;2.33;;
35634;SDS011;21757;43.610;1.440;2023-01-13T08:28:14;15.80;;;6.35;;
35634;SDS011;21757;43.610;1.440;2023-01-13T08:30:41;11.25;;;2.47;;
35634;SDS011;21757;43.610;1.440;2023-01-13T08:33:08;15.68;;;2.30;;
35634;SDS011;21757;43.610;1.440;2023-01-13T08:35:36;4.38;;;1.70;;
35634;SDS011;21757;43.610;1.440;2023-01-13T08:38:05;14.38;;;5.97;;
35634;SDS011;21757;43.610;1.440;2023-01-13T08:40:32;5.28;;;1.70;;
35634;SDS011;21757;43.610;1.440;2023-01-13T08:42:57;7.85;;;1.98;;
35634;SDS011;21757;43.610;1.440;2023-01-13T08:45:23;5.90;;;2.25;;
35634;SDS011;21757;43.610;1.440;2023-01-13T08:47:49;8.82;;;2.13;;
35634;SDS011;21757;43.610;1.440;2023-01-13T08:50:15;7.68;;;2.33;;
35634;SDS011;21757;43.610;1.440;2023-01-13T08:52:41;4.55;;;2.30;;
35634;SDS011;21757;43.610;1.440;2023-01-13T08:55:07;7.78;;;3.03;;
35634;SDS011;21757;43.610;1.440;2023-01-13T08:57:33;7.07;;;2.20;;
35634;SDS011;21757;43.610;1.440;2023-01-13T08:59:59;8.70;;;1.90;;
35634;SDS011;21757;43.610;1.440;2023-01-13T09:02:25;9.00;;;2.58;;
35634;SDS011;21757;43.610;1.440;2023-01-13T09:04:51;6.82;;;1.90;;
35634;SDS011;21757;43.610;1.440;2023-01-13T09:07:17;4.93;;;2.28;;
35634;SDS011;21757;43.610;1.440;2023-01-13T09:09:43;6.35;;;3.38;;
35634;SDS011;21757;43.610;1.440;2023-01-13T09:12:12;5.60;;;2.15;;
35634;SDS011;21757;43.610;1.440;2023-01-13T09:14:57;9.77;;;2.80;;
35634;SDS011;21757;43.610;1.440;2023-01-13T09:17:23;5.78;;;1.85;;
35634;SDS011;21757;43.610;1.440;2023-01-13T09:19:49;8.68;;;2.25;;
35634;SDS011;21757;43.610;1.440;2023-01-13T09:22:16;9.23;;;2.55;;
35634;SDS011;21757;43.610;1.440;2023-01-13T09:24:43;7.45;;;2.10;;
35634;SDS011;21757;43.610;1.440;2023-01-13T09:27:09;8.25;;;2.13;;
35634;SDS011;21757;43.610;1.440;2023-01-13T09:29:36;6.68;;;2.20;;
35634;SDS011;21757;43.610;1.440;2023-01-13T09:32:03;6.47;;;1.80;;
35634;SDS011;21757;43.610;1.440;2023-01-13T09:34:29;6.30;;;1.90;;
35634;SDS011;21757;43.610;1.440;2023-01-13T09:37:13;14.45;;;7.22;;
35634;SDS011;21757;43.610;1.440;2023-01-13T09:39:39;6.05;;;2.50;;
35634;SDS011;21757;43.610;1.440;2023-01-13T09:45:18;5.90;;;2.05;;
35634;SDS011;21757;43.610;1.440;2023-01-13T09:48:04;6.85;;;2.70;;
35634;SDS011;21757;43.610;1.440;2023-01-13T09:50:47;4.10;;;2.38;;
35634;SDS011;21757;43.610;1.440;2023-01-13T09:53:31;3.90;;;2.10;;
35634;SDS011;21757;43.610;1.440;2023-01-13T09:56:00;5.72;;;1.90;;
35634;SDS011;21757;43.610;1.440;2023-01-13T09:58:26;4.82;;;1.90;;
35634;SDS011;21757;43.610;1.440;2023-01-13T10:00:57;6.50;;;2.30;;
35634;SDS011;21757;43.610;1.440;2023-01-13T10:03:29;4.57;;;2.50;;
35634;SDS011;21757;43.610;1.440;2023-01-13T10:11:20;4.47;;;1.88;;
35634;SDS011;21757;43.610;1.440;2023-01-13T10:14:11;3.65;;;1.67;;
35634;SDS011;21757;43.610;1.440;2023-01-13T10:19:37;7.10;;;1.77;;
35634;SDS011;21757;43.610;1.440;2023-01-13T10:27:17;4.00;;;1.55;;
35634;SDS011;21757;43.610;1.440;2023-01-13T10:29:56;4.20;;;1.48;;
35634;SDS011;21757;43.610;1.440;2023-01-13T10:32:22;3.17;;;1.30;;
35634;SDS011;21757;43.610;1.440;2023-01-13T10:34:48;2.33;;;1.23;;
35634;SDS011;21757;43.610;1.440;2023-01-13T10:37:20;5.05;;;1.88;;
35634;SDS011;21757;43.610;1.440;2023-01-13T10:39:47;3.60;;;1.38;;
35634;SDS011;21757;43.610;1.440;2023-01-13T10:42:15;7.47;;;1.70;;
35634;SDS011;21757;43.610;1.440;2023-01-13T10:44:50;3.47;;;1.60;;
35634;SDS011;21757;43.610;1.440;2023-01-13T10:47:20;7.85;;;2.63;;
35634;SDS011;21757;43.610;1.440;2023-01-13T10:49:58;2.47;;;1.48;;
35634;SDS011;21757;43.610;1.440;2023-01-13T10:52:27;5.13;;;1.77;;
35634;SDS011;21757;43.610;1.440;2023-01-13T10:54:55;3.83;;;1.33;;
35634;SDS011;21757;43.610;1.440;2023-01-13T10:57:22;5.18;;;1.40;;
35634;SDS011;21757;43.610;1.440;2023-01-13T10:59:49;4.10;;;1.35;;
35634;SDS011;21757;43.610;1.440;2023-01-13T11:02:27;3.60;;;1.45;;
35634;SDS011;21757;43.610;1.440;2023-01-13T11:12:34;6.57;;;1.50;;
35634;SDS011;21757;43.610;1.440;2023-01-13T11:15:21;4.15;;;1.35;;
35634;SDS011;21757;43.610;1.440;2023-01-13T11:17:55;5.68;;;1.80;;
35634;SDS011;21757;43.610;1.440;2023-01-13T11:20:38;4.82;;;1.50;;
35634;SDS011;21757;43.610;1.440;2023-01-13T11:23:12;4.40;;;1.33;;
35634;SDS011;21757;43.610;1.440;2023-01-13T11:25:50;4.18;;;1.30;;
35634;SDS011;21757;43.610;1.440;2023-01-13T11:31:03;5.13;;;1.92;;
35634;SDS011;21757;43.610;1.440;2023-01-13T11:33:44;4.20;;;1.65;;
35634;SDS011;21757;43.610;1.440;2023-01-13T11:36:39;4.20;;;1.58;;
35634;SDS011;21757;43.610;1.440;2023-01-13T11:41:47;5.20;;;1.65;;
35634;SDS011;21757;43.610;1.440;2023-01-13T11:44:45;4.55;;;1.67;;
35634;SDS011;21757;43.610;1.440;2023-01-13T11:47:20;3.42;;;1.30;;
35634;SDS011;21757;43.610;1.440;2023-01-13T11:49:48;3.65;;;1.35;;
35634;SDS011;21757;43.610;1.440;2023-01-13T11:52:22;3.97;;;1.65;;
35634;SDS011;21757;43.610;1.440;2023-01-13T11:54:58;5.47;;;1.33;;
35634;SDS011;21757;43.610;1.440;2023-01-13T11:57:38;4.35;;;0.95;;
35634;SDS011;21757;43.610;1.440;2023-01-13T12:00:54;3.35;;;1.20;;
35634;SDS011;21757;43.610;1.440;2023-01-13T12:06:35;5.75;;;1.50;;
35634;SDS011;21757;43.610;1.440;2023-01-13T12:14:40;5.95;;;1.70;;
35634;SDS011;21757;43.610;1.440;2023-01-13T12:17:30;4.35;;;1.55;;
35634;SDS011;21757;43.610;1.440;2023-01-13T12:23:06;4.10;;;1.20;;
35634;SDS011;21757;43.610;1.440;2023-01-13T12:31:07;1.67;;;0.98;;
35634;SDS011;21757;43.610;1.440;2023-01-13T12:36:26;2.83;;;1.08;;
35634;SDS011;21757;43.610;1.440;2023-01-13T12:41:48;3.47;;;1.33;;
35634;SDS011;21757;43.610;1.440;2023-01-13T12:47:36;4.15;;;1.17;;
35634;SDS011;21757;43.610;1.440;2023-01-13T12:52:59;3.65;;;1.10;;
35634;SDS011;21757;43.610;1.440;2023-01-13T12:55:49;2.28;;;0.98;;
35634;SDS011;21757;43.610;1.440;2023-01-13T12:58:16;4.07;;;1.25;;
35634;SDS011;21757;43.610;1.440;2023-01-13T13:08:29;7.32;;;1.48;;
35634;SDS011;21757;43.610;1.440;2023-01-13T13:14:13;4.10;;;1.65;;
35634;SDS011;21757;43.610;1.440;2023-01-13T13:16:48;5.00;;;1.30;;
35634;SDS011;21757;43.610;1.440;2023-01-13T13:30:12;3.60;;;1.48;;
35634;SDS011;21757;43.610;1.440;2023-01-13T13:33:11;3.03;;;1.20;;
35634;SDS011;21757;43.610;1.440;2023-01-13T13:41:28;3.58;;;1.08;;
35634;SDS011;21757;43.610;1.440;2023-01-13T13:44:18;5.90;;;1.40;;
35634;SDS011;21757;43.610;1.440;2023-01-13T13:47:12;6.75;;;1.20;;
35634;SDS011;21757;43.610;1.440;2023-01-13T13:49:48;4.05;;;1.10;;
35634;SDS011;21757;43.610;1.440;2023-01-13T13:55:18;7.75;;;2.00;;
35634;SDS011;21757;43.610;1.440;2023-01-13T13:57:47;5.78;;;1.35;;
35634;SDS011;21757;43.610;1.440;2023-01-13T14:02:47;5.38;;;1.27;;
35634;SDS011;21757;43.610;1.440;2023-01-13T14:07:50;6.05;;;1.70;;
35634;SDS011;21757;43.610;1.440;2023-01-13T14:10:23;5.88;;;1.20;;
35634;SDS011;21757;43.610;1.440;2023-01-13T14:12:53;5.60;;;1.35;;
35634;SDS011;21757;43.610;1.440;2023-01-13T14:15:32;4.25;;;1.20;;
35634;SDS011;21757;43.610;1.440;2023-01-13T14:18:03;7.07;;;1.50;;
35634;SDS011;21757;43.610;1.440;2023-01-13T14:20:33;7.88;;;1.80;;
35634;SDS011;21757;43.610;1.440;2023-01-13T14:22:59;7.05;;;2.85;;
35634;SDS011;21757;43.610;1.440;2023-01-13T14:25:29;10.35;;;3.90;;
35634;SDS011;21757;43.610;1.440;2023-01-13T14:30:37;5.03;;;1.58;;
35634;SDS011;21757;43.610;1.440;2023-01-13T14:33:03;4.40;;;1.48;;
35634;SDS011;21757;43.610;1.440;2023-01-13T14:35:30;5.63;;;1.30;;
35634;SDS011;21757;43.610;1.440;2023-01-13T14:38:02;7.57;;;1.77;;
35634;SDS011;21757;43.610;1.440;2023-01-13T14:43:15;4.72;;;1.27;;
35634;SDS011;21757;43.610;1.440;2023-01-13T14:45:55;6.00;;;1.45;;
35634;SDS011;21757;43.610;1.440;2023-01-13T14:48:29;6.60;;;1.50;;
35634;SDS011;21757;43.610;1.440;2023-01-13T14:51:00;8.82;;;2.05;;
35634;SDS011;21757;43.610;1.440;2023-01-13T14:53:43;8.63;;;1.85;;
35634;SDS011;21757;43.610;1.440;2023-01-13T15:04:55;5.00;;;1.35;;
35634;SDS011;21757;43.610;1.440;2023-01-13T15:07:28;5.50;;;1.13;;
35634;SDS011;21757;43.610;1.440;2023-01-13T15:09:59;5.47;;;1.23;;
35634;SDS011;21757;43.610;1.440;2023-01-13T15:14:55;5.40;;;1.25;;
35634;SDS011;21757;43.610;1.440;2023-01-13T15:17:21;4.53;;;1.40;;
35634;SDS011;21757;43.610;1.440;2023-01-13T15:19:46;9.80;;;1.70;;
35634;SDS011;21757;43.610;1.440;2023-01-13T15:22:12;7.68;;;1.80;;
35634;SDS011;21757;43.610;1.440;2023-01-13T15:24:38;6.97;;;2.10;;
35634;SDS011;21757;43.610;1.440;2023-01-13T15:27:09;9.25;;;2.60;;
35634;SDS011;21757;43.610;1.440;2023-01-13T15:29:44;6.25;;;1.75;;
35634;SDS011;21757;43.610;1.440;2023-01-13T15:32:19;5.55;;;1.55;;
35634;SDS011;21757;43.610;1.440;2023-01-13T15:34:46;9.52;;;2.42;;
35634;SDS011;21757;43.610;1.440;2023-01-13T15:37:13;8.18;;;1.95;;
35634;SDS011;21757;43.610;1.440;2023-01-13T15:39:39;8.65;;;1.60;;
35634;SDS011;21757;43.610;1.440;2023-01-13T15:42:05;8.30;;;2.20;;
35634;SDS011;21757;43.610;1.440;2023-01-13T15:44:49;8.93;;;2.47;;
35634;SDS011;21757;43.610;1.440;2023-01-13T15:47:33;9.27;;;2.38;;
35634;SDS011;21757;43.610;1.440;2023-01-13T15:49:59;11.18;;;2.03;;
35634;SDS011;21757;43.610;1.440;2023-01-13T15:52:25;7.90;;;2.40;;
35634;SDS011;21757;43.610;1.440;2023-01-13T15:54:52;6.68;;;1.73;;
35634;SDS011;21757;43.610;1.440;2023-01-13T15:59:46;5.88;;;1.35;;
35634;SDS011;21757;43.610;1.440;2023-01-13T16:02:12;9.48;;;1.63;;
35634;SDS011;21757;43.610;1.440;2023-01-13T16:04:45;6.65;;;1.70;;
35634;SDS011;21757;43.610;1.440;2023-01-13T16:07:15;6.07;;;1.60;;
35634;SDS011;21757;43.610;1.440;2023-01-13T16:09:43;8.07;;;1.75;;
35634;SDS011;21757;43.610;1.440;2023-01-13T16:12:09;10.85;;;1.98;;
35634;SDS011;21757;43.610;1.440;2023-01-13T16:14:38;8.05;;;2.08;;
35634;SDS011;21757;43.610;1.440;2023-01-13T16:17:14;12.15;;;2.22;;
35634;SDS011;21757;43.610;1.440;2023-01-13T16:19:41;8.95;;;2.10;;
35634;SDS011;21757;43.610;1.440;2023-01-13T16:22:07;8.98;;;2.10;;
35634;SDS011;21757;43.610;1.440;2023-01-13T16:24:38;8.23;;;2.60;;
35634;SDS011;21757;43.610;1.440;2023-01-13T16:27:11;10.32;;;2.40;;
35634;SDS011;21757;43.610;1.440;2023-01-13T16:29:42;10.30;;;2.08;;
35634;SDS011;21757;43.610;1.440;2023-01-13T16:32:09;11.57;;;2.42;;
35634;SDS011;21757;43.610;1.440;2023-01-13T16:34:35;10.00;;;2.22;;
35634;SDS011;21757;43.610;1.440;2023-01-13T16:37:01;8.70;;;2.17;;
35634;SDS011;21757;43.610;1.440;2023-01-13T16:39:27;11.18;;;2.55;;
35634;SDS011;21757;43.610;1.440;2023-01-13T16:41:55;10.80;;;2.83;;
35634;SDS011;21757;43.610;1.440;2023-01-13T16:44:22;9.40;;;2.45;;
35634;SDS011;21757;43.610;1.440;2023-01-13T16:46:47;7.05;;;2.20;;
35634;SDS011;21757;43.610;1.440;2023-01-13T16:49:14;8.02;;;2.42;;
35634;SDS011;21757;43.610;1.440;2023-01-13T16:51:41;9.13;;;2.40;;
35634;SDS011;21757;43.610;1.440;2023-01-13T16:54:07;10.02;;;2.55;;
35634;SDS011;21757;43.610;1.440;2023-01-13T16:56:35;13.38;;;4.05;;
35634;SDS011;21757;43.610;1.440;2023-01-13T16:59:06;7.30;;;2.40;;
35634;SDS011;21757;43.610;1.440;2023-01-13T17:01:38;9.77;;;2.88;;
35634;SDS011;21757;43.610;1.440;2023-01-13T17:04:05;9.07;;;3.38;;
35634;SDS011;21757;43.610;1.440;2023-01-13T17:06:37;8.90;;;3.40;;
35634;SDS011;21757;43.610;1.440;2023-01-13T17:09:09;9.38;;;2.92;;
35634;SDS011;21757;43.610;1.440;2023-01-13T17:11:40;7.82;;;1.85;;
35634;SDS011;21757;43.610;1.440;2023-01-13T17:14:06;11.98;;;2.30;;
35634;SDS011;21757;43.610;1.440;2023-01-13T17:16:31;8.93;;;2.80;;
35634;SDS011;21757;43.610;1.440;2023-01-13T17:18:57;11.30;;;3.10;;
35634;SDS011;21757;43.610;1.440;2023-01-13T17:21:23;18.10;;;4.53;;
35634;SDS011;21757;43.610;1.440;2023-01-13T17:23:48;12.68;;;3.65;;